createdAt,value
2018-11-03T00:01:11.798Z,5.20
2018-11-03T00:03:41.374Z,5.62
2018-11-03T00:06:10.719Z,5.85
2018-11-03T00:08:43.674Z,5.37
2018-11-03T00:11:12.985Z,6.42
2018-11-03T00:13:42.285Z,5.87
2018-11-03T00:16:11.517Z,6.12
2018-11-03T00:18:40.893Z,6.50
2018-11-03T00:21:10.136Z,7.20
2018-11-03T00:23:39.330Z,7.25
2018-11-03T00:26:08.613Z,6.28
2018-11-03T00:28:39.008Z,6.35
2018-11-03T00:31:08.218Z,6.10
2018-11-03T00:33:37.532Z,6.67
2018-11-03T00:36:06.901Z,6.42
2018-11-03T00:38:36.261Z,6.58
2018-11-03T00:41:05.576Z,7.05
2018-11-03T00:43:34.798Z,11.95
2018-11-03T00:46:05.157Z,6.60
2018-11-03T00:48:34.564Z,10.50
2018-11-03T00:51:03.782Z,12.90
2018-11-03T00:53:32.978Z,6.65
2018-11-03T00:56:02.279Z,6.75
2018-11-03T00:58:31.558Z,7.35
2018-11-03T01:01:00.765Z,7.30
2018-11-03T01:03:30.049Z,7.53
2018-11-03T01:05:59.303Z,6.83
2018-11-03T01:08:30.608Z,7.33
2018-11-03T01:10:59.946Z,7.25
2018-11-03T01:13:29.191Z,8.00
2018-11-03T01:15:58.396Z,7.15
2018-11-03T01:18:27.705Z,8.55
2018-11-03T01:20:56.997Z,8.05
2018-11-03T01:23:26.176Z,8.70
2018-11-03T01:25:55.573Z,7.80
2018-11-03T01:28:24.877Z,8.90
2018-11-03T01:30:54.189Z,8.13
2018-11-03T01:33:23.411Z,9.20
2018-11-03T01:35:52.605Z,9.48
2018-11-03T01:38:21.901Z,10.08
2018-11-03T01:40:51.166Z,9.78
2018-11-03T01:43:20.370Z,9.40
2018-11-03T01:45:49.688Z,10.25
2018-11-03T01:48:19.110Z,10.03
2018-11-03T01:50:48.349Z,11.93
2018-11-03T01:53:17.544Z,10.32
2018-11-03T01:55:46.837Z,9.75
2018-11-03T01:58:16.074Z,10.35
2018-11-03T02:00:45.273Z,10.98
2018-11-03T02:03:14.509Z,9.73
2018-11-03T02:05:43.766Z,9.30
2018-11-03T02:08:13.090Z,9.88
2018-11-03T02:10:42.293Z,11.20
2018-11-03T02:13:11.511Z,10.55
2018-11-03T02:15:40.719Z,10.95
2018-11-03T02:18:09.998Z,8.53
2018-11-03T02:20:39.220Z,10.93
2018-11-03T02:23:08.454Z,9.98
2018-11-03T02:25:37.833Z,10.55
2018-11-03T02:28:07.382Z,10.03
2018-11-03T02:30:36.605Z,10.43
2018-11-03T02:33:05.852Z,10.90
2018-11-03T02:35:36.105Z,11.25
2018-11-03T02:38:05.438Z,11.90
2018-11-03T02:40:34.741Z,11.85
2018-11-03T02:43:04.014Z,11.63
2018-11-03T02:45:33.227Z,11.22
2018-11-03T02:50:42.400Z,11.18
2018-11-03T02:53:11.650Z,10.08
2018-11-03T02:55:40.997Z,11.68
2018-11-03T02:58:10.292Z,11.15
2018-11-03T03:00:39.530Z,12.50
2018-11-03T03:03:08.738Z,10.75
2018-11-03T03:05:37.938Z,12.40
2018-11-03T03:08:07.297Z,14.38
2018-11-03T03:10:36.648Z,14.18
2018-11-03T03:13:05.809Z,13.15
2018-11-03T03:15:36.511Z,13.30
2018-11-03T03:18:05.891Z,12.73
2018-11-03T03:20:35.110Z,13.20
2018-11-03T03:23:04.841Z,14.18
2018-11-03T03:25:34.053Z,14.80
2018-11-03T03:28:03.317Z,13.70
2018-11-03T03:30:32.547Z,12.98
2018-11-03T03:33:01.735Z,14.43
2018-11-03T03:35:31.007Z,14.35
2018-11-03T03:38:00.314Z,13.80
2018-11-03T03:40:29.613Z,14.10
2018-11-03T03:42:58.849Z,13.50
2018-11-03T03:45:28.119Z,13.83
2018-11-03T03:47:57.403Z,15.10
2018-11-03T03:50:26.636Z,15.30
2018-11-03T03:52:55.930Z,13.15
2018-11-03T03:55:26.225Z,13.85
2018-11-03T03:57:55.667Z,15.80
2018-11-03T04:00:24.933Z,14.80
2018-11-03T04:02:54.159Z,14.90
2018-11-03T04:05:23.417Z,13.62
2018-11-03T04:07:52.738Z,13.70
2018-11-03T04:10:22.051Z,15.18
2018-11-03T04:12:51.402Z,13.68
2018-11-03T04:15:20.744Z,14.83
2018-11-03T04:17:50.010Z,14.00
2018-11-03T04:20:19.261Z,15.15
2018-11-03T04:22:48.529Z,14.55
2018-11-03T04:25:18.145Z,14.43
2018-11-03T04:27:47.487Z,14.70
2018-11-03T04:30:16.730Z,13.95
2018-11-03T04:32:45.931Z,15.08
2018-11-03T04:35:15.438Z,14.80
2018-11-03T04:37:44.734Z,14.25
2018-11-03T04:40:14.027Z,12.98
2018-11-03T04:42:43.270Z,14.60
2018-11-03T04:45:12.980Z,12.70
2018-11-03T04:47:43.155Z,14.38
2018-11-03T04:50:12.498Z,13.95
2018-11-03T04:52:41.686Z,14.25
2018-11-03T04:55:11.100Z,13.25
2018-11-03T04:57:40.480Z,15.80
2018-11-03T05:00:10.303Z,14.47
2018-11-03T05:02:39.626Z,14.75
2018-11-03T05:05:08.859Z,15.38
2018-11-03T05:07:38.099Z,14.53
2018-11-03T05:10:08.523Z,14.33
2018-11-03T05:12:39.790Z,15.25
2018-11-03T05:15:13.152Z,15.00
2018-11-03T05:17:42.396Z,14.80
2018-11-03T05:20:11.578Z,14.70
2018-11-03T05:22:40.816Z,15.88
2018-11-03T05:25:10.075Z,14.68
2018-11-03T05:27:39.386Z,15.95
2018-11-03T05:30:08.855Z,15.35
2018-11-03T05:32:38.462Z,15.60
2018-11-03T05:35:07.694Z,15.23
2018-11-03T05:37:36.934Z,15.28
2018-11-03T05:40:08.274Z,14.75
2018-11-03T05:42:37.492Z,15.40
2018-11-03T05:45:06.806Z,15.35
2018-11-03T05:47:36.125Z,15.75
2018-11-03T05:50:06.945Z,16.27
2018-11-03T05:52:36.225Z,15.35
2018-11-03T05:55:08.099Z,15.28
2018-11-03T05:57:37.387Z,16.40
2018-11-03T06:00:08.283Z,17.77
2018-11-03T06:02:37.503Z,15.72
2018-11-03T06:05:06.850Z,14.40
2018-11-03T06:07:36.154Z,15.18
2018-11-03T06:10:07.082Z,16.02
2018-11-03T06:12:36.307Z,15.72
2018-11-03T06:15:05.584Z,16.32
2018-11-03T06:17:34.877Z,16.30
2018-11-03T06:20:04.187Z,16.97
2018-11-03T06:22:33.352Z,17.12
2018-11-03T06:25:02.567Z,15.53
2018-11-03T06:27:34.622Z,17.17
2018-11-03T06:30:03.891Z,16.50
2018-11-03T06:32:33.084Z,17.80
2018-11-03T06:35:02.738Z,17.48
2018-11-03T06:37:32.006Z,18.45
2018-11-03T06:40:02.328Z,16.45
2018-11-03T06:42:31.661Z,16.50
2018-11-03T06:45:00.874Z,16.57
2018-11-03T06:47:30.101Z,18.35
2018-11-03T06:49:59.413Z,17.02
2018-11-03T06:52:28.700Z,17.07
2018-11-03T06:54:57.990Z,15.20
2018-11-03T06:57:27.711Z,17.40
2018-11-03T06:59:57.048Z,16.35
2018-11-03T07:02:26.241Z,16.17
2018-11-03T07:04:55.562Z,17.37
2018-11-03T07:07:24.753Z,15.48
2018-11-03T07:09:53.993Z,16.82
2018-11-03T07:12:24.959Z,14.73
2018-11-03T07:14:54.068Z,17.20
2018-11-03T07:17:23.368Z,16.52
2018-11-03T07:19:53.201Z,14.80
2018-11-03T07:22:22.470Z,16.23
2018-11-03T07:24:52.087Z,17.00
2018-11-03T07:27:21.450Z,17.45
2018-11-03T07:29:50.856Z,15.50
2018-11-03T07:32:20.102Z,16.82
2018-11-03T07:34:49.477Z,15.50
2018-11-03T07:37:18.756Z,15.60
2018-11-03T07:39:48.051Z,15.88
2018-11-03T07:42:17.275Z,15.50
2018-11-03T07:44:46.582Z,15.68
2018-11-03T07:47:15.875Z,15.25
2018-11-03T07:49:45.288Z,15.25
2018-11-03T07:52:14.543Z,12.80
2018-11-03T07:54:43.849Z,14.25
2018-11-03T07:57:13.386Z,13.68
2018-11-03T07:59:42.693Z,14.33
2018-11-03T08:02:11.971Z,15.13
2018-11-03T08:04:41.333Z,13.20
2018-11-03T08:07:10.549Z,15.40
2018-11-03T08:09:39.899Z,14.33
2018-11-03T08:12:09.201Z,12.43
2018-11-03T08:14:38.499Z,12.18
2018-11-03T08:17:07.782Z,11.25
2018-11-03T08:19:37.533Z,10.40
2018-11-03T08:22:06.771Z,10.50
2018-11-03T08:24:36.094Z,11.60
2018-11-03T08:27:05.425Z,9.67
2018-11-03T08:29:34.670Z,9.97
2018-11-03T08:32:03.908Z,9.23
2018-11-03T08:34:34.065Z,10.10
2018-11-03T08:37:03.339Z,13.17
2018-11-03T08:39:32.564Z,13.17
2018-11-03T08:42:01.785Z,10.53
2018-11-03T08:44:31.113Z,12.80
2018-11-03T08:47:00.410Z,9.00
2018-11-03T08:49:29.757Z,8.27
2018-11-03T08:51:59.099Z,8.03
2018-11-03T08:54:28.266Z,8.70
2018-11-03T08:56:57.588Z,8.00
2018-11-03T08:59:26.830Z,8.03
2018-11-03T09:01:56.730Z,7.43
2018-11-03T09:04:27.197Z,7.47
2018-11-03T09:06:57.520Z,6.93
2018-11-03T09:09:26.797Z,7.97
2018-11-03T09:11:58.057Z,6.80
2018-11-03T09:14:28.569Z,8.40
2018-11-03T09:16:57.786Z,7.80
2018-11-03T09:19:29.019Z,6.90
2018-11-03T09:22:12.602Z,6.90
2018-11-03T09:24:41.809Z,7.10
2018-11-03T09:27:10.999Z,6.67
2018-11-03T09:29:40.221Z,6.90
2018-11-03T09:32:09.461Z,5.90
2018-11-03T09:34:38.794Z,6.30
2018-11-03T09:37:08.698Z,6.80
2018-11-03T09:39:37.990Z,7.40
2018-11-03T09:42:07.093Z,5.23
2018-11-03T09:44:36.339Z,6.20
2018-11-03T09:47:06.030Z,5.20
2018-11-03T09:49:35.210Z,6.13
2018-11-03T09:52:04.701Z,5.40
2018-11-03T09:54:33.932Z,5.23
2018-11-03T09:57:04.232Z,5.77
2018-11-03T09:59:34.378Z,5.40
2018-11-03T10:02:03.636Z,5.50
2018-11-03T10:04:32.903Z,5.00
2018-11-03T10:07:02.764Z,4.80
2018-11-03T10:09:31.958Z,5.17
2018-11-03T10:12:01.195Z,6.70
2018-11-03T10:14:31.281Z,5.33
2018-11-03T10:17:00.521Z,5.27
2018-11-03T10:19:29.835Z,5.70
2018-11-03T10:21:59.191Z,5.60
2018-11-03T10:24:31.210Z,4.90
2018-11-03T10:27:00.499Z,5.70
2018-11-03T10:29:29.835Z,5.63
2018-11-03T10:31:59.100Z,5.00
2018-11-03T10:34:29.127Z,5.07
2018-11-03T10:36:58.464Z,4.77
2018-11-03T10:39:27.686Z,4.80
2018-11-03T10:41:57.480Z,4.40
2018-11-03T10:44:26.740Z,4.93
2018-11-03T10:46:56.023Z,5.37
2018-11-03T10:49:25.502Z,5.10
2018-11-03T10:51:54.833Z,4.30
2018-11-03T10:54:24.051Z,4.50
2018-11-03T10:56:59.878Z,5.07
2018-11-03T10:59:29.077Z,5.57
2018-11-03T11:02:03.654Z,5.10
2018-11-03T11:04:38.209Z,4.60
2018-11-03T11:07:12.810Z,4.47
2018-11-03T11:09:47.303Z,6.03
2018-11-03T11:12:21.932Z,4.27
2018-11-03T11:14:51.173Z,4.70
2018-11-03T11:17:20.505Z,4.33
2018-11-03T11:19:49.857Z,5.07
2018-11-03T11:22:19.116Z,4.13
2018-11-03T11:24:48.429Z,4.13
2018-11-03T11:27:17.621Z,4.43
2018-11-03T11:29:46.875Z,4.03
2018-11-03T11:32:18.398Z,3.90
2018-11-03T11:34:47.810Z,4.07
2018-11-03T11:37:17.162Z,3.40
2018-11-03T11:39:46.367Z,4.30
2018-11-03T11:42:15.597Z,4.00
2018-11-03T11:44:44.906Z,4.77
2018-11-03T11:47:16.249Z,4.00
2018-11-03T11:49:45.503Z,3.70
2018-11-03T11:52:14.803Z,3.83
2018-11-03T11:54:45.100Z,3.73
2018-11-03T11:57:15.395Z,4.80
2018-11-03T11:59:44.726Z,3.60
2018-11-03T12:02:13.965Z,3.73
2018-11-03T12:04:43.531Z,2.97
2018-11-03T12:07:12.693Z,3.47
2018-11-03T12:09:41.959Z,3.80
2018-11-03T12:12:11.183Z,2.40
2018-11-03T12:14:40.390Z,2.67
2018-11-03T12:17:09.639Z,2.30
2018-11-03T12:19:38.861Z,3.00
2018-11-03T12:22:08.262Z,3.60
2018-11-03T12:24:37.522Z,3.97
2018-11-03T12:27:06.952Z,3.17
2018-11-03T12:29:36.217Z,2.73
2018-11-03T12:32:05.794Z,3.10
2018-11-03T12:34:35.185Z,3.33
2018-11-03T12:37:04.446Z,3.63
2018-11-03T12:39:33.905Z,2.83
2018-11-03T12:42:03.349Z,2.90
2018-11-03T12:44:33.140Z,2.87
2018-11-03T12:47:02.418Z,3.10
2018-11-03T12:49:31.705Z,3.47
2018-11-03T12:52:01.594Z,2.43
2018-11-03T12:54:31.135Z,2.40
2018-11-03T12:57:00.438Z,2.83
2018-11-03T12:59:29.840Z,3.03
2018-11-03T13:01:59.139Z,3.53
2018-11-03T13:04:28.529Z,2.97
2018-11-03T13:06:57.898Z,3.10
2018-11-03T13:09:27.215Z,2.93
2018-11-03T13:11:56.517Z,3.33
2018-11-03T13:14:25.786Z,3.33
2018-11-03T13:16:55.112Z,2.70
2018-11-03T13:19:24.366Z,2.83
2018-11-03T13:21:54.213Z,2.43
2018-11-03T13:24:23.431Z,3.10
2018-11-03T13:26:52.734Z,2.70
2018-11-03T13:29:22.278Z,3.23
2018-11-03T13:31:51.520Z,3.20
2018-11-03T13:34:20.740Z,3.40
2018-11-03T13:36:49.943Z,2.60
2018-11-03T13:39:19.143Z,2.93
2018-11-03T13:41:48.318Z,2.83
2018-11-03T13:44:17.645Z,3.10
2018-11-03T13:46:47.838Z,2.97
2018-11-03T13:49:17.215Z,5.20
2018-11-03T13:51:46.524Z,4.07
2018-11-03T13:54:15.725Z,4.00
2018-11-03T13:56:45.029Z,3.37
2018-11-03T13:59:14.218Z,3.70
2018-11-03T14:01:43.420Z,4.00
2018-11-03T14:04:13.352Z,3.40
2018-11-03T14:06:42.574Z,2.77
2018-11-03T14:09:11.957Z,3.07
2018-11-03T14:11:42.056Z,2.70
2018-11-03T14:14:11.564Z,3.40
2018-11-03T14:16:40.782Z,2.50
2018-11-03T14:19:11.073Z,2.63
2018-11-03T14:21:40.369Z,3.20
2018-11-03T14:24:09.674Z,3.13
2018-11-03T14:26:38.990Z,2.90
2018-11-03T14:29:08.248Z,3.23
2018-11-03T14:31:37.871Z,4.50
2018-11-03T14:34:07.706Z,2.70
2018-11-03T14:36:36.878Z,3.03
2018-11-03T14:39:07.765Z,2.63
2018-11-03T14:41:37.033Z,3.60
2018-11-03T14:44:06.224Z,2.80
2018-11-03T14:46:35.442Z,4.30
2018-11-03T14:49:04.779Z,3.50
2018-11-03T14:51:34.992Z,3.40
2018-11-03T14:54:04.390Z,3.70
2018-11-03T14:56:33.753Z,3.03
2018-11-03T14:59:02.959Z,3.60
2018-11-03T15:01:32.230Z,3.40
2018-11-03T15:04:03.541Z,3.57
2018-11-03T15:06:32.847Z,3.57
2018-11-03T15:09:03.306Z,4.10
2018-11-03T15:11:32.592Z,3.33
2018-11-03T15:14:02.051Z,3.17
2018-11-03T15:16:32.985Z,3.23
2018-11-03T15:19:02.371Z,3.30
2018-11-03T15:21:31.697Z,2.97
2018-11-03T15:24:00.927Z,3.50
2018-11-03T15:26:30.178Z,2.43
2018-11-03T15:28:59.624Z,3.43
2018-11-03T15:31:28.907Z,3.27
2018-11-03T15:33:58.165Z,3.60
2018-11-03T15:36:27.554Z,2.92
2018-11-03T15:38:56.857Z,3.53
2018-11-03T15:41:26.197Z,3.33
2018-11-03T15:43:56.134Z,3.80
2018-11-03T15:46:26.744Z,3.37
2018-11-03T15:48:57.054Z,3.60
2018-11-03T15:51:26.372Z,5.30
2018-11-03T15:53:55.616Z,3.83
2018-11-03T15:56:25.004Z,4.87
2018-11-03T15:58:54.402Z,4.62
2018-11-03T16:01:23.823Z,4.72
2018-11-03T16:03:53.030Z,4.15
2018-11-03T16:06:23.367Z,3.80
2018-11-03T16:08:52.658Z,3.98
2018-11-03T16:11:23.086Z,4.33
2018-11-03T16:13:53.300Z,4.55
2018-11-03T16:16:22.746Z,5.85
2018-11-03T16:18:52.183Z,4.30
2018-11-03T16:21:21.639Z,3.60
2018-11-03T16:23:50.996Z,4.47
2018-11-03T16:26:20.559Z,3.72
2018-11-03T16:28:49.852Z,3.02
2018-11-03T16:31:19.134Z,4.00
2018-11-03T16:33:48.456Z,3.35
2018-11-03T16:36:17.731Z,4.58
2018-11-03T16:38:46.927Z,3.87
2018-11-03T16:41:16.138Z,3.90
2018-11-03T16:43:45.434Z,4.25
2018-11-03T16:46:14.772Z,6.00
2018-11-03T16:48:44.026Z,4.30
2018-11-03T16:51:13.241Z,6.53
2018-11-03T16:53:42.530Z,10.32
2018-11-03T16:56:11.889Z,10.80
2018-11-03T16:58:42.309Z,10.98
2018-11-03T17:01:12.150Z,11.15
2018-11-03T17:03:41.465Z,10.15
2018-11-03T17:06:11.694Z,9.20
2018-11-03T17:08:41.040Z,12.18
2018-11-03T17:11:10.305Z,7.45
2018-11-03T17:13:39.481Z,8.25
2018-11-03T17:16:08.880Z,8.03
2018-11-03T17:18:38.274Z,9.00
2018-11-03T17:21:07.458Z,8.00
2018-11-03T17:23:36.783Z,6.08
2018-11-03T17:26:06.015Z,7.00
2018-11-03T17:28:35.386Z,6.62
2018-11-03T17:31:06.032Z,7.45
2018-11-03T17:33:35.355Z,6.55
2018-11-03T17:36:04.755Z,6.03
2018-11-03T17:38:34.045Z,6.05
2018-11-03T17:41:04.405Z,6.50
2018-11-03T17:43:34.696Z,7.78
2018-11-03T17:46:04.358Z,7.70
2018-11-03T17:48:33.594Z,6.03
2018-11-03T17:51:03.950Z,15.30
2018-11-03T17:53:33.167Z,11.55
2018-11-03T17:56:02.406Z,9.38
2018-11-03T17:58:31.661Z,13.22
2018-11-03T18:01:00.971Z,8.50
2018-11-03T18:03:30.144Z,9.43
2018-11-03T18:06:00.182Z,9.58
2018-11-03T18:08:30.162Z,8.50
2018-11-03T18:10:59.458Z,7.60
2018-11-03T18:13:28.879Z,7.83
2018-11-03T18:15:58.167Z,8.90
2018-11-03T18:18:27.358Z,9.38
2018-11-03T18:20:56.659Z,7.87
2018-11-03T18:23:25.887Z,8.75
2018-11-03T18:25:55.271Z,8.58
2018-11-03T18:28:24.511Z,11.08
2018-11-03T18:30:53.773Z,8.68
2018-11-03T18:33:23.021Z,7.87
2018-11-03T18:35:52.183Z,8.50
2018-11-03T18:38:21.683Z,7.92
2018-11-03T18:40:50.891Z,7.40
2018-11-03T18:43:22.748Z,7.85
2018-11-03T18:45:52.158Z,9.45
2018-11-03T18:48:22.561Z,8.58
2018-11-03T18:50:52.025Z,7.47
2018-11-03T18:53:21.274Z,7.65
2018-11-03T18:55:50.710Z,8.58
2018-11-03T18:58:20.163Z,7.70
2018-11-03T19:00:49.834Z,8.48
2018-11-03T19:03:21.158Z,8.18
2018-11-03T19:05:50.458Z,10.15
2018-11-03T19:08:19.739Z,7.35
2018-11-03T19:10:50.239Z,8.95
2018-11-03T19:13:19.554Z,8.20
2018-11-03T19:15:48.687Z,7.25
2018-11-03T19:18:17.958Z,8.85
2018-11-03T19:20:47.158Z,8.38
2018-11-03T19:23:16.536Z,7.30
2018-11-03T19:25:45.675Z,8.50
2018-11-03T19:28:14.914Z,9.13
2018-11-03T19:30:44.166Z,8.08
2018-11-03T19:33:13.422Z,8.23
2018-11-03T19:35:42.702Z,7.87
2018-11-03T19:38:11.925Z,8.75
2018-11-03T19:40:41.227Z,8.50
2018-11-03T19:43:10.527Z,9.13
2018-11-03T19:45:39.738Z,9.63
2018-11-03T19:48:09.045Z,9.60
2018-11-03T19:50:38.174Z,9.73
2018-11-03T19:53:07.734Z,9.38
2018-11-03T19:55:37.125Z,9.10
2018-11-03T19:58:06.664Z,9.85
2018-11-03T20:00:35.871Z,8.95
2018-11-03T20:03:05.553Z,9.83
2018-11-03T20:05:34.719Z,9.23
2018-11-03T20:08:03.977Z,11.30
2018-11-03T20:10:33.508Z,9.80
2018-11-03T20:13:02.726Z,9.73
2018-11-03T20:15:31.929Z,9.63
2018-11-03T20:18:02.497Z,10.80
2018-11-03T20:20:31.624Z,9.50
2018-11-03T20:23:00.846Z,8.95
2018-11-03T20:25:31.131Z,8.23
2018-11-03T20:28:00.411Z,9.30
2018-11-03T20:30:29.594Z,20.60
2018-11-03T20:32:58.919Z,14.38
2018-11-03T20:35:28.263Z,12.88
2018-11-03T20:37:58.509Z,10.35
2018-11-03T20:40:27.809Z,9.53
2018-11-03T20:42:57.094Z,8.63
2018-11-03T20:45:26.356Z,10.00
2018-11-03T20:47:55.754Z,8.23
2018-11-03T20:50:25.010Z,9.30
2018-11-03T20:52:54.331Z,10.72
2018-11-03T20:55:24.219Z,9.48
2018-11-03T20:57:53.474Z,9.63
2018-11-03T21:00:22.818Z,8.63
2018-11-03T21:02:52.070Z,8.95
2018-11-03T21:05:21.323Z,7.53
2018-11-03T21:07:51.307Z,9.08
2018-11-03T21:10:20.561Z,7.10
2018-11-03T21:12:49.882Z,7.97
2018-11-03T21:15:19.145Z,9.60
2018-11-03T21:17:49.562Z,10.50
2018-11-03T21:20:18.901Z,9.38
2018-11-03T21:22:50.118Z,9.65
2018-11-03T21:25:19.337Z,8.80
2018-11-03T21:27:49.051Z,9.65
2018-11-03T21:30:18.352Z,13.75
2018-11-03T21:32:47.551Z,9.40
2018-11-03T21:35:16.685Z,11.45
2018-11-03T21:37:46.052Z,8.55
2018-11-03T21:40:15.236Z,8.15
2018-11-03T21:42:45.507Z,8.95
2018-11-03T21:45:15.661Z,9.20
2018-11-03T21:47:44.905Z,8.00
2018-11-03T21:50:14.122Z,8.85
2018-11-03T21:52:43.418Z,12.68
2018-11-03T21:55:12.649Z,8.85
2018-11-03T21:57:41.853Z,8.00
2018-11-03T22:00:12.013Z,8.30
2018-11-03T22:02:41.794Z,9.80
2018-11-03T22:05:12.639Z,8.55
2018-11-03T22:07:42.672Z,10.72
2018-11-03T22:10:13.023Z,7.90
2018-11-03T22:12:44.173Z,8.23
2018-11-03T22:15:13.430Z,9.75
2018-11-03T22:17:42.643Z,10.03
2018-11-03T22:20:12.539Z,8.98
2018-11-03T22:22:41.753Z,8.35
2018-11-03T22:25:11.789Z,9.08
2018-11-03T22:27:41.019Z,8.50
2018-11-03T22:30:11.314Z,7.87
2018-11-03T22:32:40.829Z,8.55
2018-11-03T22:35:10.151Z,8.05
2018-11-03T22:37:39.411Z,8.45
2018-11-03T22:40:09.129Z,7.33
2018-11-03T22:42:39.393Z,7.25
2018-11-03T22:45:08.829Z,8.20
2018-11-03T22:47:37.991Z,7.75
2018-11-03T22:50:07.254Z,7.62
2018-11-03T22:52:36.521Z,8.33
2018-11-03T22:55:07.207Z,9.88
2018-11-03T22:57:36.566Z,8.95
2018-11-03T23:00:08.399Z,7.90
2018-11-03T23:02:37.709Z,8.30
2018-11-03T23:05:08.387Z,11.55
2018-11-03T23:07:37.697Z,19.15
2018-11-03T23:10:07.098Z,11.80
2018-11-03T23:12:36.756Z,10.88
2018-11-03T23:15:07.416Z,10.08
2018-11-03T23:17:36.863Z,11.30
2018-11-03T23:20:09.238Z,12.33
2018-11-03T23:22:39.066Z,10.70
2018-11-03T23:25:09.138Z,11.78
2018-11-03T23:27:38.483Z,13.60
2018-11-03T23:30:09.702Z,11.40
2018-11-03T23:32:39.215Z,10.15
2018-11-03T23:35:10.546Z,11.45
2018-11-03T23:37:39.908Z,12.15
2018-11-03T23:40:10.081Z,10.75
2018-11-03T23:42:39.441Z,12.50
2018-11-03T23:45:09.587Z,11.65
2018-11-03T23:47:39.158Z,12.60
2018-11-03T23:50:10.439Z,14.85
2018-11-03T23:52:43.632Z,17.57
2018-11-03T23:55:12.896Z,13.62
2018-11-03T23:57:42.281Z,13.18
